»·PEaware :: PAA760 KSFO-KLAX

PAA760 :: KSFO-KLAX

FLIGHT INFORMATION

Flight Status: Arrived
Operator:
PanAm
More flights by this operator :: More flights under this callsign
Pilot: Pete D. (19559)
Aircraft: BOEING 727-200
(B722)
More flights by this aircraft type
Origin: KSFO San Francisco Intl
United States
Destination: KLAX Los Angeles Intl
United States
More flights between these airports :: More routes between these airports
Route: +OFFSH1 RZS SADDE8
File this flight plan on PilotEdge
Remarks: Strumming on Twitch
Altitude:
(Current/Filed)
35,000ft
Speed:
(Current/Filed)
450kts
Departed: 14-Aug-18 06:00 PM
Arrived: 14-Aug-18 07:03 PM
Distance/Time
Traveled:
293nm/1:03
Distance/Time
To Go:
Arrived

Flight Plot

Page will automatically refresh every two minutes.

Flight plan parsing failed; only flown route is shown


Map Options




Map Legend


Flown Route
Filed Route
Departure Airport
Arrival Airport
Navaid (VOR, NDB)
Fix

Horizontal Profiles

Position Reports

Time Latitude Longitude Heading Altitude Ground
Speed
14-Aug-18 17:17 37.616735 -122.380513 299 25ft 0kts
14-Aug-18 17:18 37.616735 -122.380513 299 25ft 0kts
14-Aug-18 17:19 37.616735 -122.380513 299 25ft 0kts
14-Aug-18 17:20 37.616735 -122.380513 299 25ft 0kts
14-Aug-18 17:21 37.616735 -122.380513 299 25ft 0kts
14-Aug-18 17:22 37.616735 -122.380513 299 25ft 0kts
14-Aug-18 17:23 37.616735 -122.380513 299 25ft 0kts
14-Aug-18 17:24 37.616735 -122.380513 299 25ft 0kts
14-Aug-18 17:25 37.616735 -122.380513 299 25ft 0kts
14-Aug-18 17:26 37.616735 -122.380513 299 25ft 0kts
14-Aug-18 17:27 37.616735 -122.380513 299 25ft 0kts
14-Aug-18 17:28 37.616735 -122.380513 299 25ft 0kts
14-Aug-18 17:29 37.616735 -122.380513 299 25ft 0kts
14-Aug-18 17:30 37.616735 -122.380513 299 25ft 0kts
14-Aug-18 17:31 37.616735 -122.380513 299 25ft 0kts
14-Aug-18 17:32 37.616735 -122.380513 299 25ft 0kts
14-Aug-18 17:33 37.616735 -122.380513 299 25ft 0kts
14-Aug-18 17:34 37.616735 -122.380513 299 25ft 0kts
14-Aug-18 17:35 37.616735 -122.380513 299 25ft 0kts
14-Aug-18 17:36 37.616735 -122.380513 299 25ft 0kts
14-Aug-18 17:37 37.616735 -122.380513 299 25ft 0kts
14-Aug-18 17:38 37.616735 -122.380513 299 25ft 0kts
14-Aug-18 17:39 37.616735 -122.380513 299 25ft 0kts
14-Aug-18 17:40 37.616735 -122.380513 299 25ft 0kts
14-Aug-18 17:41 37.616735 -122.380513 299 25ft 0kts
14-Aug-18 17:42 37.616735 -122.380513 299 25ft 0kts
14-Aug-18 17:43 37.616735 -122.380513 299 25ft 0kts
14-Aug-18 17:44 37.616711 -122.380461 299 25ft 2kts
14-Aug-18 17:45 37.616614 -122.379756 237 25ft 2kts
14-Aug-18 17:46 37.617142 -122.379453 190 25ft 1kts
14-Aug-18 17:47 37.616877 -122.379529 197 25ft 0kts
14-Aug-18 17:48 37.616877 -122.379529 197 25ft 0kts
14-Aug-18 17:49 37.616877 -122.379529 197 25ft 0kts
14-Aug-18 17:50 37.616877 -122.379529 197 25ft 0kts
14-Aug-18 17:51 37.616877 -122.379529 197 25ft 0kts
14-Aug-18 17:52 37.616877 -122.379529 197 25ft 0kts
14-Aug-18 17:53 37.616726 -122.379590 199 25ft 4kts
14-Aug-18 17:54 37.615479 -122.380391 210 25ft 6kts
14-Aug-18 17:55 37.613351 -122.381802 208 25ft 11kts
14-Aug-18 17:56 37.610105 -122.384027 215 25ft 10kts
14-Aug-18 17:57 37.608564 -122.384064 119 25ft 0kts
14-Aug-18 17:58 37.608564 -122.384064 119 25ft 0kts
14-Aug-18 17:59 37.608396 -122.383677 118 25ft 6kts
14-Aug-18 18:00 37.608287 -122.382711 29 25ft 0kts
14-Aug-18 18:01 37.621558 -122.373896 23 45ft 166kts
14-Aug-18 18:02 37.667006 -122.365778 0 2162ft 190kts
14-Aug-18 18:03 37.706552 -122.399205 240 4304ft 239kts
14-Aug-18 18:04 37.652074 -122.442667 219 7634ft 253kts
14-Aug-18 18:05 37.601036 -122.503350 224 10860ft 270kts
14-Aug-18 18:06 37.534316 -122.578310 220 12310ft 355kts
14-Aug-18 18:07 37.459377 -122.660809 216 15537ft 366kts
14-Aug-18 18:08 37.363242 -122.675602 154 18148ft 376kts
14-Aug-18 18:09 37.257228 -122.645455 169 19560ft 411kts
14-Aug-18 18:10 37.149657 -122.619204 168 22456ft 401kts
14-Aug-18 18:11 37.039362 -122.590600 169 24259ft 412kts
14-Aug-18 18:12 36.926041 -122.561464 169 25749ft 424kts
14-Aug-18 18:13 36.809981 -122.531039 169 27132ft 434kts
14-Aug-18 18:14 36.691072 -122.500103 169 28365ft 443kts
14-Aug-18 18:15 36.569505 -122.468535 170 29479ft 451kts
14-Aug-18 18:16 36.445977 -122.436539 170 30713ft 453kts
14-Aug-18 18:17 36.332406 -122.371541 139 31811ft 462kts
14-Aug-18 18:18 36.261445 -122.243217 133 32746ft 464kts
14-Aug-18 18:19 36.179261 -122.120844 132 33735ft 463kts
14-Aug-18 18:20 36.097334 -121.998591 132 34507ft 462kts
14-Aug-18 18:21 36.015572 -121.876582 132 35045ft 465kts
14-Aug-18 18:22 35.939324 -121.744905 130 35050ft 478kts
14-Aug-18 18:23 35.854027 -121.619056 133 35036ft 491kts
14-Aug-18 18:24 35.764182 -121.489246 132 34979ft 503kts
14-Aug-18 18:25 35.672740 -121.357680 132 34950ft 512kts
14-Aug-18 18:26 35.581639 -121.226689 133 34945ft 517kts
14-Aug-18 18:27 35.487691 -121.092646 132 34951ft 520kts
14-Aug-18 18:28 35.393453 -120.958819 132 34977ft 519kts
14-Aug-18 18:29 35.299469 -120.825738 132 34986ft 513kts
14-Aug-18 18:30 35.207356 -120.699721 142 34972ft 481kts
14-Aug-18 18:31 35.111249 -120.591790 138 34991ft 462kts
14-Aug-18 18:32 35.039855 -120.465071 124 35009ft 454kts
14-Aug-18 18:33 34.960011 -120.343911 134 32667ft 472kts
14-Aug-18 18:34 34.874172 -120.231785 137 30428ft 469kts
14-Aug-18 18:35 34.797162 -120.134684 135 28768ft 459kts
14-Aug-18 18:36 34.711302 -120.025728 135 27035ft 444kts
14-Aug-18 18:37 34.627112 -119.919216 135 25315ft 431kts
14-Aug-18 18:38 34.545450 -119.816614 135 23952ft 412kts
14-Aug-18 18:39 34.477186 -119.714363 123 23938ft 372kts
14-Aug-18 18:40 34.423512 -119.609039 124 23917ft 367kts
14-Aug-18 18:41 34.365585 -119.501129 124 23927ft 399kts
14-Aug-18 18:42 34.304049 -119.388991 124 22474ft 399kts
14-Aug-18 18:43 34.253758 -119.298106 125 21074ft 389kts
14-Aug-18 18:44 34.194430 -119.191352 124 19260ft 378kts
14-Aug-18 18:45 34.137932 -119.089940 124 15821ft 357kts
14-Aug-18 18:46 34.084047 -118.992624 118 12970ft 336kts
14-Aug-18 18:47 34.066206 -118.890934 103 12976ft 292kts
14-Aug-18 18:48 34.044304 -118.793244 106 13016ft 320kts
14-Aug-18 18:49 34.029622 -118.690905 95 12542ft 299kts
14-Aug-18 18:50 34.022344 -118.594345 96 8431ft 286kts
14-Aug-18 18:51 34.014689 -118.502827 97 7106ft 269kts
14-Aug-18 18:52 34.012916 -118.420809 81 6967ft 233kts
14-Aug-18 18:53 34.023437 -118.348086 82 6012ft 232kts
14-Aug-18 18:54 34.034304 -118.273285 82 5024ft 230kts
14-Aug-18 18:55 34.044922 -118.199073 82 5007ft 234kts
14-Aug-18 18:56 34.042472 -118.115218 109 4131ft 246kts
14-Aug-18 18:57 33.998961 -118.089831 225 3979ft 186kts
14-Aug-18 18:58 33.978467 -118.138159 264 4017ft 173kts
14-Aug-18 18:59 33.973356 -118.198831 262 3574ft 191kts
14-Aug-18 19:00 33.967339 -118.256945 261 2524ft 168kts
14-Aug-18 19:01 33.962031 -118.307626 261 1679ft 135kts
14-Aug-18 19:02 33.957369 -118.351372 260 1029ft 139kts
14-Aug-18 19:03 33.952739 -118.395762 258 265ft 128kts
14-Aug-18 19:04 33.950102 -118.418060 236 139ft 19kts
14-Aug-18 19:05 33.949401 -118.419209 233 139ft 0kts
14-Aug-18 19:06 33.949401 -118.419209 233 139ft 0kts
14-Aug-18 19:07 33.947686 -118.421952 233 139ft 13kts
14-Aug-18 19:08 33.947118 -118.419516 85 139ft 14kts
14-Aug-18 19:09 33.947666 -118.414307 74 139ft 17kts
14-Aug-18 19:10 33.948216 -118.409064 121 139ft 9kts
14-Aug-18 19:11 33.947379 -118.407883 162 139ft 3kts
14-Aug-18 19:12 33.946972 -118.407793 172 139ft 0kts
14-Aug-18 19:13 33.946972 -118.407793 172 139ft 0kts

Navigation Log

Ident Type
Flight plan parsing failed, navigation log unavailable